Time;durP1;ratioP1;P1;durP2;ratioP2;P2;SDS_P1;SDS_P2;PMS_P1;PMS_P2;Temp;Humidity;BMP_temperature;BMP_pressure;BME280_temperature;BME280_humidity;BME280_pressure;Samples;Min_cycle;Max_cycle;Signal;HPM_P1;HPM_P2
2023/03/07 00:01:29;;;;;;;;;19.33;19.33;;;;;8.84;97.01;99822.69;4925794;28;45923;-80
2023/03/07 00:03:56;;;;;;;;;20.00;20.00;;;;;8.79;97.34;99825.31;4928018;28;45325;-81
2023/03/07 00:06:27;;;;;;;;;22.33;19.00;;;;;8.86;97.56;99828.91;4926926;28;45638;-81
2023/03/07 00:08:55;;;;;;;;;19.00;19.00;;;;;8.81;97.43;99829.75;4926699;28;45538;-80
2023/03/07 00:11:20;;;;;;;;;22.67;20.67;;;;;8.76;97.47;99815.56;4924981;28;45462;-81
2023/03/07 00:13:46;;;;;;;;;20.67;19.33;;;;;8.78;98.29;99828.84;4925873;28;45486;-82
2023/03/07 00:16:13;;;;;;;;;18.00;15.00;;;;;8.77;97.71;99827.09;4926472;28;46904;-81
2023/03/07 00:18:40;;;;;;;;;19.33;17.33;;;;;8.78;97.31;99831.50;4924588;28;45424;-80
2023/03/07 00:21:09;;;;;;;;;21.67;19.67;;;;;8.82;97.93;99827.97;4923590;28;45820;-81
2023/03/07 00:23:42;;;;;;;;;19.67;18.67;;;;;8.77;97.77;99821.78;4927186;28;45453;-80
2023/03/07 00:26:21;;;;;;;;;22.67;20.67;;;;;8.71;97.67;99805.84;4923985;28;47174;-79
2023/03/07 00:28:49;;;;;;;;;20.00;19.00;;;;;8.70;97.98;99809.34;4922814;28;44828;-79
2023/03/07 00:31:53;;;;;;;;;22.33;19.33;;;;;8.77;97.87;99817.34;4924275;28;45310;-80
2023/03/07 00:34:19;;;;;;;;;24.00;21.00;;;;;8.60;98.18;99808.38;4922841;28;45557;-81
2023/03/07 00:36:44;;;;;;;;;23.33;20.00;;;;;8.60;98.17;99804.00;4926982;28;45437;-79
2023/03/07 00:39:10;;;;;;;;;24.33;22.67;;;;;8.66;98.58;99807.56;4945271;28;45388;-81
2023/03/07 00:41:35;;;;;;;;;23.67;22.33;;;;;8.67;99.42;99804.91;4945563;28;45461;-80
2023/03/07 00:44:01;;;;;;;;;23.33;19.00;;;;;8.52;98.58;99795.09;4944405;28;44782;-80
2023/03/07 00:46:27;;;;;;;;;21.33;20.00;;;;;8.58;99.40;99799.53;4926365;28;46894;-80
2023/03/07 00:48:52;;;;;;;;;24.33;22.33;;;;;8.58;99.41;99799.53;4927952;28;45489;-80
2023/03/07 00:51:19;;;;;;;;;20.67;20.00;;;;;8.63;98.54;99792.53;4946342;28;44783;-80
2023/03/07 00:53:45;;;;;;;;;25.67;22.33;;;;;8.60;98.51;99788.09;4927597;28;45522;-81
2023/03/07 00:56:20;;;;;;;;;23.00;23.00;;;;;8.58;99.09;99784.56;4927044;28;46884;-81
2023/03/07 01:02:07;;;;;;;;;20.33;19.00;;;;;8.65;98.87;99776.66;4944976;28;45925;-79
2023/03/07 01:04:33;;;;;;;;;21.33;19.67;;;;;8.64;98.47;99772.19;4923897;28;46750;-81
2023/03/07 01:06:58;;;;;;;;;20.67;18.33;;;;;8.73;97.98;99774.91;4924743;28;47555;-82
2023/03/07 01:09:24;;;;;;;;;25.00;23.67;;;;;8.70;98.66;99762.50;4924710;28;45390;-80
2023/03/07 01:11:50;;;;;;;;;16.33;15.00;;;;;8.69;98.34;99760.75;4907251;28;45566;-80
2023/03/07 01:14:15;;;;;;;;;19.00;17.00;;;;;8.67;98.62;99762.50;4925338;28;45510;-81
2023/03/07 01:16:40;;;;;;;;;24.67;23.33;;;;;8.58;98.66;99752.75;4927891;28;45412;-80
2023/03/07 01:19:11;;;;;;;;;21.33;18.00;;;;;8.65;98.29;99752.78;4924237;28;45589;-83
2023/03/07 01:21:39;;;;;;;;;21.67;20.33;;;;;8.68;98.22;99747.50;4924284;28;45422;-82
2023/03/07 01:24:06;;;;;;;;;20.00;15.33;;;;;8.72;98.64;99749.28;4926804;28;45271;-82
2023/03/07 01:26:32;;;;;;;;;23.67;22.00;;;;;8.71;98.34;99745.75;4909328;28;47789;-81
2023/03/07 01:29:00;;;;;;;;;25.00;20.00;;;;;8.72;98.86;99741.31;4908291;28;44813;-80
2023/03/07 01:31:26;;;;;;;;;25.00;23.67;;;;;8.60;98.69;99735.09;4908586;28;45422;-80
2023/03/07 01:33:53;;;;;;;;;23.33;19.33;;;;;8.64;98.76;99730.66;4905372;28;45430;-81
2023/03/07 01:36:28;;;;;;;;;29.33;24.33;;;;;8.69;98.40;99717.47;4907385;28;45516;-81
2023/03/07 01:39:05;;;;;;;;;20.67;19.33;;;;;8.72;98.16;99721.00;4932226;28;45531;-81
2023/03/07 01:41:33;;;;;;;;;21.00;21.00;;;;;8.71;98.21;99724.53;4927022;28;44892;-81
2023/03/07 01:44:01;;;;;;;;;19.00;18.33;;;;;8.79;97.91;99724.59;4943088;28;45417;-80
2023/03/07 01:46:33;;;;;;;;;19.00;19.00;;;;;8.81;98.20;99717.53;4942525;28;46738;-81
2023/03/07 01:49:15;;;;;;;;;24.00;23.00;;;;;8.81;98.58;99722.81;4945423;28;45426;-81
2023/03/07 01:51:45;;;;;;;;;18.33;17.33;;;;;8.75;98.46;99722.81;4943084;28;45706;-80
2023/03/07 01:54:16;;;;;;;;;21.67;20.00;;;;;8.73;98.30;99716.59;4925704;28;45409;-80
2023/03/07 01:56:43;;;;;;;;;22.00;19.33;;;;;8.64;98.88;99714.78;4926262;28;47278;-81
2023/03/07 01:59:08;;;;;;;;;21.67;20.00;;;;;8.63;98.77;99712.13;4944337;28;45453;-80
2023/03/07 02:01:35;;;;;;;;;23.67;20.67;;;;;8.63;99.05;99705.06;4943469;28;45392;-81
2023/03/07 02:04:14;;;;;;;;;19.67;19.67;;;;;8.62;98.94;99697.97;4944146;28;45415;-80
2023/03/07 02:06:39;;;;;;;;;20.00;19.67;;;;;8.51;99.45;99697.94;4929198;28;46975;-81
2023/03/07 02:09:12;;;;;;;;;25.00;19.00;;;;;8.54;99.61;99702.34;4943552;28;45849;-81
2023/03/07 02:11:40;;;;;;;;;24.33;22.00;;;;;8.45;99.45;99687.28;4943143;28;45527;-81
2023/03/07 02:14:09;;;;;;;;;24.00;21.00;;;;;8.43;99.79;99694.34;4943610;28;45441;-79
2023/03/07 02:16:37;;;;;;;;;17.00;15.00;;;;;8.45;100.00;99689.94;4925172;28;47224;-81
2023/03/07 02:19:39;;;;;;;;;27.67;19.33;;;;;8.43;100.00;99681.09;4946926;28;46081;-81
2023/03/07 02:22:12;;;;;;;;;20.33;18.33;;;;;8.41;100.00;99675.78;4849330;29;45494;-81
2023/03/07 02:24:55;;;;;;;;;20.33;19.00;;;;;8.40;100.00;99673.09;4865318;29;45764;-81
2023/03/07 02:27:24;;;;;;;;;21.00;20.00;;;;;8.35;100.00;99670.41;4866843;29;46984;-80
2023/03/07 02:29:50;;;;;;;;;27.00;19.00;;;;;8.31;100.00;99662.47;4866834;29;44950;-80
2023/03/07 02:32:17;;;;;;;;;25.00;23.00;;;;;8.32;100.00;99658.91;4865774;29;46032;-82
2023/03/07 02:34:43;;;;;;;;;26.33;20.67;;;;;8.26;100.00;99657.13;4848460;29;45507;-81
2023/03/07 02:37:14;;;;;;;;;21.00;18.00;;;;;8.23;100.00;99648.28;4852329;29;45543;-80
2023/03/07 02:39:43;;;;;;;;;22.33;19.67;;;;;8.29;100.00;99658.91;4865846;29;46176;-79
2023/03/07 02:42:13;;;;;;;;;24.67;18.33;;;;;8.32;100.00;99657.19;4851381;29;45431;-81
2023/03/07 02:44:38;;;;;;;;;24.67;23.00;;;;;8.21;100.00;99643.84;4868775;29;45453;-81
2023/03/07 02:47:07;;;;;;;;;19.67;19.67;;;;;8.20;100.00;99638.53;4851888;29;45904;-83
2023/03/07 02:49:33;;;;;;;;;22.67;21.67;;;;;8.22;100.00;99636.81;4850915;29;45499;-80
2023/03/07 02:51:59;;;;;;;;;21.67;19.00;;;;;8.28;100.00;99647.44;4866540;29;45524;-81
2023/03/07 02:54:25;;;;;;;;;22.33;20.67;;;;;8.24;100.00;99640.34;4854329;29;45444;-81
2023/03/07 02:56:51;;;;;;;;;22.67;20.67;;;;;8.25;100.00;99630.63;4864189;28;47214;-80
2023/03/07 02:59:16;;;;;;;;;21.00;18.00;;;;;8.21;100.00;99627.97;4946355;28;45579;-81
2023/03/07 03:01:41;;;;;;;;;23.33;21.00;;;;;8.25;100.00;99626.22;4947853;28;45455;-80
2023/03/07 03:04:07;;;;;;;;;23.33;18.00;;;;;8.25;100.00;99625.34;4943168;28;45765;-81
2023/03/07 03:06:32;;;;;;;;;23.00;18.67;;;;;8.24;100.00;99628.84;4944646;28;46179;-80
2023/03/07 03:08:58;;;;;;;;;22.00;18.33;;;;;8.18;100.00;99633.25;4945223;28;45470;-81
2023/03/07 03:11:23;;;;;;;;;18.33;16.33;;;;;8.12;100.00;99617.31;4946480;28;45456;-80
2023/03/07 03:13:48;;;;;;;;;22.00;19.00;;;;;8.16;100.00;99621.75;4928800;28;45368;-80
2023/03/07 03:16:14;;;;;;;;;22.00;17.67;;;;;8.16;100.00;99618.19;4945855;28;45401;-79
2023/03/07 03:18:39;;;;;;;;;19.67;16.00;;;;;8.17;100.00;99612.94;4928484;28;45990;-81
2023/03/07 03:21:11;;;;;;;;;18.33;17.00;;;;;8.18;100.00;99606.75;4947704;28;45578;-81
2023/03/07 03:23:37;;;;;;;;;21.67;19.00;;;;;8.14;100.00;99607.63;4928830;28;45545;-81
2023/03/07 03:26:10;;;;;;;;;23.00;23.00;;;;;8.20;100.00;99610.31;4946874;28;45366;-81
2023/03/07 03:28:37;;;;;;;;;19.33;19.33;;;;;8.16;100.00;99600.56;4928320;28;45485;-80
2023/03/07 03:31:09;;;;;;;;;29.33;24.33;;;;;8.20;100.00;99607.66;4930021;28;45533;-81
2023/03/07 03:33:34;;;;;;;;;22.33;20.33;;;;;8.18;100.00;99598.81;4945666;28;45606;-84
2023/03/07 03:36:06;;;;;;;;;23.67;20.33;;;;;8.28;100.00;99599.75;4943755;28;46175;-81
2023/03/07 03:38:32;;;;;;;;;23.33;19.33;;;;;8.20;100.00;99601.44;4943650;28;45659;-81
2023/03/07 03:40:58;;;;;;;;;20.33;19.00;;;;;8.16;100.00;99595.28;4946631;28;45356;-82
2023/03/07 03:43:23;;;;;;;;;24.33;21.00;;;;;8.15;100.00;99582.91;4931080;28;45574;-81
2023/03/07 03:45:56;;;;;;;;;24.67;22.00;;;;;8.21;100.00;99588.22;4948391;28;45435;-81
2023/03/07 03:48:21;;;;;;;;;26.33;22.00;;;;;8.23;100.00;99590.00;4928304;28;44874;-81
2023/03/07 03:50:47;;;;;;;;;22.00;18.00;;;;;8.26;100.00;99577.69;4947140;28;45512;-79
2023/03/07 03:53:12;;;;;;;;;23.67;20.67;;;;;8.27;100.00;99576.78;4942430;28;45512;-81
2023/03/07 03:55:38;;;;;;;;;23.00;20.00;;;;;8.27;100.00;99570.59;4945938;28;46328;-81
2023/03/07 03:58:03;;;;;;;;;18.00;17.33;;;;;8.28;100.00;99569.72;4928925;28;45459;-81
2023/03/07 04:00:29;;;;;;;;;20.33;18.67;;;;;8.24;100.00;99573.22;4946356;28;45480;-80
2023/03/07 04:02:55;;;;;;;;;27.67;23.33;;;;;8.23;100.00;99575.00;4945647;28;45619;-80
2023/03/07 04:06:02;;;;;;;;;23.00;19.00;;;;;8.25;100.00;99567.94;4929118;28;46823;-80
2023/03/07 04:08:27;;;;;;;;;26.00;20.33;;;;;8.14;100.00;99561.69;4947095;28;45511;-82
2023/03/07 04:10:53;;;;;;;;;21.67;17.00;;;;;8.21;100.00;99567.03;4928090;28;45506;-80
2023/03/07 04:13:19;;;;;;;;;20.67;17.33;;;;;8.16;100.00;99558.19;4946597;28;45350;-80
2023/03/07 04:15:44;;;;;;;;;26.00;22.67;;;;;8.23;100.00;99558.22;4947149;28;45365;-80
2023/03/07 04:18:09;;;;;;;;;25.33;22.00;;;;;8.28;100.00;99560.03;4961590;28;45349;-80
2023/03/07 04:20:35;;;;;;;;;23.00;19.67;;;;;8.30;100.00;99552.06;4944744;28;45759;-81
2023/03/07 04:23:07;;;;;;;;;20.67;16.00;;;;;8.31;100.00;99551.19;4947149;28;44837;-83
2023/03/07 04:25:39;;;;;;;;;23.00;20.67;;;;;8.50;100.00;99576.91;4944815;28;45479;-81
2023/03/07 04:28:05;;;;;;;;;18.33;17.33;;;;;8.46;100.00;99566.28;4958332;28;45482;-82
2023/03/07 04:30:30;;;;;;;;;22.33;22.00;;;;;8.36;100.00;99553.00;4942854;28;45850;-80
2023/03/07 04:32:57;;;;;;;;;21.00;20.67;;;;;8.50;100.00;99568.94;4946245;28;44934;-80
2023/03/07 04:35:22;;;;;;;;;18.33;16.67;;;;;8.46;100.00;99564.53;4943117;28;45456;-80
2023/03/07 04:37:49;;;;;;;;;19.33;19.33;;;;;8.42;100.00;99544.19;4918819;28;45820;-81
2023/03/07 04:40:15;;;;;;;;;20.67;20.67;;;;;8.44;100.00;99547.72;4909663;28;44966;-81
2023/03/07 04:42:40;;;;;;;;;22.67;22.33;;;;;8.44;100.00;99547.72;4907870;28;45431;-81
2023/03/07 04:45:06;;;;;;;;;25.00;20.67;;;;;8.37;100.00;99551.22;4922922;28;46129;-80
2023/03/07 04:47:35;;;;;;;;;23.00;19.67;;;;;8.33;100.00;99538.84;4923549;28;45891;-80
2023/03/07 04:50:00;;;;;;;;;11.67;8.00;;;;;8.37;100.00;99551.22;4909508;28;45474;-81
2023/03/07 04:52:25;;;;;;;;;24.33;22.00;;;;;8.32;100.00;99532.66;4909612;28;45414;-81
2023/03/07 04:54:51;;;;;;;;;20.33;17.33;;;;;8.27;100.00;99533.53;4923630;28;45769;-80
2023/03/07 04:57:16;;;;;;;;;22.33;18.33;;;;;8.25;100.00;99535.28;4906785;28;45455;-80
2023/03/07 04:59:41;;;;;;;;;17.67;17.67;;;;;8.20;100.00;99537.88;4922495;28;45775;-79
2023/03/07 05:02:10;;;;;;;;;18.33;17.67;;;;;8.20;100.00;99527.28;4923942;28;45414;-79
2023/03/07 05:04:36;;;;;;;;;17.00;17.00;;;;;8.18;100.00;99532.63;4906420;28;45425;-80
2023/03/07 05:07:02;;;;;;;;;17.00;17.00;;;;;8.24;100.00;99531.75;4921737;28;45470;-81
2023/03/07 05:09:28;;;;;;;;;24.33;23.00;;;;;8.18;100.00;99529.97;4908080;28;45478;-80
2023/03/07 05:11:54;;;;;;;;;25.00;18.00;;;;;8.20;100.00;99538.81;4910725;28;45819;-81
2023/03/07 05:14:21;;;;;;;;;19.00;18.33;;;;;8.12;100.00;99527.28;4910800;28;46754;-81
2023/03/07 05:16:46;;;;;;;;;22.33;20.00;;;;;8.11;100.00;99533.44;4926050;28;45370;-81
2023/03/07 05:19:12;;;;;;;;;16.33;15.00;;;;;8.08;100.00;99532.53;4925075;28;45411;-81
2023/03/07 05:21:39;;;;;;;;;22.00;19.33;;;;;8.03;100.00;99524.59;4925491;28;45550;-80
2023/03/07 05:24:06;;;;;;;;;22.33;19.67;;;;;7.99;100.00;99517.50;4908245;28;47616;-81
2023/03/07 05:26:32;;;;;;;;;22.33;20.00;;;;;8.02;100.00;99518.41;4925385;28;45697;-82
2023/03/07 05:28:58;;;;;;;;;20.33;20.33;;;;;8.02;100.00;99525.47;4925715;28;45445;-81
2023/03/07 05:31:23;;;;;;;;;25.00;20.00;;;;;7.96;100.00;99512.22;4924001;28;45571;-82
2023/03/07 05:33:49;;;;;;;;;24.00;19.00;;;;;7.96;100.00;99525.44;4906751;28;46700;-80
2023/03/07 05:36:15;;;;;;;;;22.67;18.33;;;;;7.97;100.00;99527.22;4905646;28;45758;-81
2023/03/07 05:38:40;;;;;;;;;24.67;18.33;;;;;7.88;100.00;99517.47;4929506;28;45895;-80
2023/03/07 05:41:05;;;;;;;;;24.00;20.33;;;;;7.85;100.00;99516.56;4925102;28;45509;-80
2023/03/07 05:43:31;;;;;;;;;23.00;19.67;;;;;7.86;100.00;99519.22;4922856;28;47653;-79
2023/03/07 05:45:57;;;;;;;;;22.33;19.00;;;;;7.86;100.00;99505.06;4923503;28;45120;-80
2023/03/07 05:48:59;;;;;;;;;24.33;21.33;;;;;8.01;100.00;99519.28;4926416;28;45388;-79
2023/03/07 05:51:25;;;;;;;;;22.00;21.00;;;;;8.00;100.00;99519.28;4927617;28;45364;-82
2023/03/07 05:53:50;;;;;;;;;22.00;17.00;;;;;8.05;100.00;99514.88;4909862;28;48079;-80
2023/03/07 05:56:16;;;;;;;;;25.67;19.33;;;;;8.04;100.00;99510.50;4927736;28;45601;-80
2023/03/07 05:58:41;;;;;;;;;23.67;20.67;;;;;7.99;100.00;99505.16;4925931;28;45007;-79
2023/03/07 06:01:08;;;;;;;;;20.33;20.33;;;;;8.06;100.00;99500.78;4925437;28;45520;-80
2023/03/07 06:03:33;;;;;;;;;21.33;20.00;;;;;7.99;100.00;99504.28;4924793;28;48307;-82
2023/03/07 06:05:59;;;;;;;;;30.33;23.00;;;;;7.99;100.00;99504.28;4921905;28;45433;-80
2023/03/07 06:08:24;;;;;;;;;19.00;15.33;;;;;8.02;100.00;99504.31;4928427;28;45349;-81
2023/03/07 06:10:54;;;;;;;;;20.67;17.33;;;;;8.14;100.00;99509.66;4924057;28;45776;-80
2023/03/07 06:13:23;;;;;;;;;19.33;14.33;;;;;8.15;100.00;99507.88;4928751;28;45448;-82
2023/03/07 06:15:52;;;;;;;;;22.67;22.67;;;;;8.13;100.00;99510.50;4927743;28;45403;-81
2023/03/07 06:18:19;;;;;;;;;21.00;20.00;;;;;8.10;100.00;99499.91;4927842;28;45939;-80
2023/03/07 06:20:53;;;;;;;;;20.00;18.33;;;;;8.23;100.00;99505.25;4927325;28;45465;-80
2023/03/07 06:23:19;;;;;;;;;19.33;19.00;;;;;8.19;100.00;99510.53;4925852;28;46761;-81
2023/03/07 06:25:46;;;;;;;;;19.00;18.00;;;;;8.25;100.00;99500.84;4927947;28;45530;-81
2023/03/07 06:28:11;;;;;;;;;22.33;17.00;;;;;8.20;100.00;99507.00;4927300;28;45817;-81
2023/03/07 06:30:36;;;;;;;;;23.67;17.67;;;;;8.24;100.00;99497.31;4925652;28;45492;-80
2023/03/07 06:33:02;;;;;;;;;23.33;17.33;;;;;8.27;100.00;99494.66;4926111;28;47042;-80
2023/03/07 06:35:27;;;;;;;;;19.00;18.67;;;;;8.22;100.00;99499.09;4925264;28;45466;-80
2023/03/07 06:37:56;;;;;;;;;22.67;18.67;;;;;8.25;100.00;99485.84;4926877;28;45567;-81
2023/03/07 06:40:21;;;;;;;;;23.00;16.33;;;;;8.15;100.00;99482.25;4946439;28;45479;-82
2023/03/07 06:42:47;;;;;;;;;19.33;19.33;;;;;8.22;100.00;99493.78;4935961;28;46414;-80
2023/03/07 06:45:12;;;;;;;;;28.00;23.00;;;;;8.27;100.00;99497.31;4913091;28;45436;-80
2023/03/07 06:47:42;;;;;;;;;14.33;13.67;;;;;8.31;100.00;99487.63;4930217;28;45528;-81
2023/03/07 06:50:09;;;;;;;;;30.67;22.33;;;;;8.25;100.00;99491.13;4950371;28;45413;-82
2023/03/07 06:52:34;;;;;;;;;19.00;18.00;;;;;8.28;100.00;99496.47;4929412;28;47295;-81
2023/03/07 06:55:00;;;;;;;;;20.00;18.67;;;;;8.27;100.00;99493.78;4932282;28;45342;-81
2023/03/07 06:57:33;;;;;;;;;22.00;19.33;;;;;8.25;100.00;99488.47;4932079;28;44918;-81
2023/03/07 07:00:07;;;;;;;;;18.00;17.00;;;;;8.33;100.00;99491.16;4917509;28;45512;-81
2023/03/07 07:02:36;;;;;;;;;19.00;17.00;;;;;8.46;100.00;99500.94;4929588;28;45552;-81
2023/03/07 07:05:02;;;;;;;;;21.67;18.33;;;;;8.34;100.00;99485.88;4936421;28;45561;-80
2023/03/07 07:07:28;;;;;;;;;17.33;17.00;;;;;8.43;100.00;99498.28;4936771;28;45430;-81
2023/03/07 07:09:55;;;;;;;;;21.67;19.00;;;;;8.41;100.00;99500.06;4931391;28;45432;-81
2023/03/07 07:12:23;;;;;;;;;19.67;17.67;;;;;8.38;100.00;99494.69;4949768;28;46396;-81
2023/03/07 07:14:55;;;;;;;;;17.67;17.67;;;;;8.41;100.00;99500.06;4928221;28;45309;-81
2023/03/07 07:17:21;;;;;;;;;18.67;17.33;;;;;8.45;100.00;99509.78;4935827;28;45509;-82
2023/03/07 07:19:47;;;;;;;;;24.67;17.33;;;;;8.46;100.00;99511.53;4941376;28;45492;-81
2023/03/07 07:22:59;;;;;;;;;14.00;14.00;;;;;8.51;100.00;99501.84;4937486;28;46594;-81
2023/03/07 07:25:27;;;;;;;;;14.67;14.00;;;;;8.46;100.00;99503.56;4937157;28;45489;-81
2023/03/07 07:27:52;;;;;;;;;13.33;10.67;;;;;8.48;100.00;99512.41;4939470;28;45512;-81
2023/03/07 07:30:18;;;;;;;;;17.67;17.00;;;;;8.48;100.00;99503.59;4947066;28;45386;-82
2023/03/07 07:32:43;;;;;;;;;20.33;18.00;;;;;8.52;100.00;99506.25;4921720;28;46982;-81
2023/03/07 07:35:10;;;;;;;;;13.33;11.67;;;;;8.59;100.00;99507.16;4939792;28;44975;-82
2023/03/07 07:37:39;;;;;;;;;17.33;13.00;;;;;8.57;100.00;99506.28;4943763;28;45517;-82
2023/03/07 07:40:21;;;;;;;;;18.33;15.67;;;;;8.57;100.00;99496.56;4947242;28;45747;-81
2023/03/07 07:42:57;;;;;;;;;20.67;18.00;;;;;8.65;100.00;99491.28;4926757;28;45465;-81
2023/03/07 07:45:23;;;;;;;;;28.00;21.67;;;;;8.68;100.00;99495.69;4929642;28;45348;-81
2023/03/07 07:47:51;;;;;;;;;19.00;18.00;;;;;8.76;100.00;99485.97;4932179;28;44820;-82
2023/03/07 07:50:21;;;;;;;;;23.00;19.67;;;;;8.65;100.00;99472.72;4930562;28;45381;-79
2023/03/07 07:52:55;;;;;;;;;18.33;14.67;;;;;8.88;100.00;99512.50;4930746;28;45786;-81
2023/03/07 07:55:20;;;;;;;;;17.67;17.00;;;;;8.90;100.00;99512.50;4916237;28;45271;-82
2023/03/07 07:57:46;;;;;;;;;27.33;19.00;;;;;8.90;100.00;99516.03;4929679;28;45401;-81
2023/03/07 08:00:18;;;;;;;;;9.00;6.33;;;;;8.92;100.00;99503.66;4931611;28;45344;-81
2023/03/07 08:02:50;;;;;;;;;21.00;17.67;;;;;8.96;100.00;99507.22;4926372;28;47686;-80
2023/03/07 08:05:20;;;;;;;;;18.67;17.67;;;;;9.00;100.00;99517.81;4932248;28;45484;-82
2023/03/07 08:07:49;;;;;;;;;21.33;16.33;;;;;8.93;100.00;99502.78;4930616;28;45429;-80
2023/03/07 08:10:16;;;;;;;;;17.00;14.33;;;;;8.91;100.00;99501.91;4933190;28;44981;-81
2023/03/07 08:12:55;;;;;;;;;18.67;17.67;;;;;9.09;100.00;99531.97;4931015;28;47649;-82
2023/03/07 08:15:20;;;;;;;;;16.00;16.00;;;;;9.07;100.00;99533.72;4948182;28;45513;-83
2023/03/07 08:17:52;;;;;;;;;15.00;12.67;;;;;9.12;100.00;99521.38;4929682;28;45431;-80
2023/03/07 08:20:22;;;;;;;;;20.00;16.00;;;;;9.16;100.00;99520.47;4933529;28;45328;-81
2023/03/07 08:22:49;;;;;;;;;17.67;15.33;;;;;9.15;99.98;99531.97;4913490;28;47123;-82
2023/03/07 08:25:20;;;;;;;;;18.00;15.33;;;;;9.21;100.00;99529.34;4930929;28;45333;-81
2023/03/07 08:27:46;;;;;;;;;17.67;14.67;;;;;9.18;99.74;99535.50;4916303;28;45490;-81
2023/03/07 08:30:15;;;;;;;;;16.00;13.67;;;;;9.19;99.72;99507.22;4915086;28;45463;-81
2023/03/07 08:32:50;;;;;;;;;17.67;13.67;;;;;9.23;99.60;99514.31;4916218;28;46728;-82
2023/03/07 08:35:16;;;;;;;;;19.67;14.33;;;;;9.27;99.83;99510.75;4931341;28;45470;-83
2023/03/07 08:37:42;;;;;;;;;19.67;17.33;;;;;9.36;99.28;99521.34;4916363;28;45521;-82
2023/03/07 08:40:15;;;;;;;;;18.00;15.00;;;;;9.45;98.98;99515.16;4942054;28;44895;-83
2023/03/07 08:42:41;;;;;;;;;19.67;13.67;;;;;9.50;98.46;99523.13;4915582;28;45545;-83
2023/03/07 08:45:09;;;;;;;;;15.67;15.67;;;;;9.53;98.24;99513.41;4934225;28;44802;-82
2023/03/07 08:47:40;;;;;;;;;19.00;17.33;;;;;9.64;97.77;99508.06;4933565;28;45382;-82
2023/03/07 08:50:06;;;;;;;;;23.33;18.00;;;;;9.56;97.89;99518.69;4915166;28;45481;-82
2023/03/07 08:52:35;;;;;;;;;17.00;14.67;;;;;9.61;97.95;99505.38;4935774;28;46440;-82
2023/03/07 08:58:24;;;;;;;;;17.67;15.33;;;;;9.58;97.08;99500.09;4934070;28;45380;-83
2023/03/07 09:00:49;;;;;;;;;15.00;13.67;;;;;9.50;97.79;99504.53;4930372;28;45417;-83
2023/03/07 09:03:16;;;;;;;;;13.33;12.00;;;;;9.57;97.62;99514.25;4932745;28;46170;-82
2023/03/07 09:05:48;;;;;;;;;14.33;14.33;;;;;9.68;97.51;99511.59;4919766;28;45403;-84
2023/03/07 09:08:19;;;;;;;;;14.67;14.67;;;;;9.76;97.03;99512.47;4933445;28;45394;-83
2023/03/07 09:10:51;;;;;;;;;14.00;14.00;;;;;9.81;97.17;99500.03;4939883;28;44924;-83
2023/03/07 09:13:17;;;;;;;;;14.00;12.67;;;;;9.78;95.34;99508.91;4936909;28;46271;-82
2023/03/07 09:15:45;;;;;;;;;15.67;15.00;;;;;9.78;96.28;99511.56;4929869;28;45426;-81
2023/03/07 09:18:12;;;;;;;;;15.33;14.00;;;;;9.72;96.28;99498.31;4931775;28;45735;-83
2023/03/07 09:20:40;;;;;;;;;14.67;14.67;;;;;9.88;95.16;99499.16;4932653;28;45569;-82
2023/03/07 09:23:15;;;;;;;;;16.33;15.00;;;;;9.92;95.97;99489.41;4913595;28;46907;-82
2023/03/07 09:25:44;;;;;;;;;15.00;14.67;;;;;10.09;95.19;99490.19;4915517;28;45798;-82
2023/03/07 09:33:23;;;;;;;;;16.33;11.00;;;;;10.45;93.39;99492.75;5011005;23;45488;-82
2023/03/07 09:35:49;;;;;;;;;14.00;13.00;;;;;10.37;94.24;99471.50;4972055;28;45344;-82
2023/03/07 09:38:14;;;;;;;;;16.00;16.00;;;;;10.60;92.62;99484.66;4948206;28;45458;-79
2023/03/07 09:40:49;;;;;;;;;16.00;14.33;;;;;10.81;92.08;99481.88;4949665;28;45275;-82
2023/03/07 09:43:31;;;;;;;;;16.67;15.33;;;;;10.98;91.47;99484.38;4937268;28;47153;-82
2023/03/07 09:46:12;;;;;;;;;15.00;13.67;;;;;11.08;91.49;99477.22;4943125;28;45422;-83
2023/03/07 09:48:48;;;;;;;;;19.33;15.00;;;;;11.14;90.47;99485.16;4946369;28;45049;-80
2023/03/07 09:51:41;;;;;;;;;12.67;12.67;;;;;11.13;90.37;99467.44;4973585;28;45462;-82
2023/03/07 09:54:15;;;;;;;;;18.00;15.67;;;;;11.33;90.47;99474.34;4957864;28;47139;-84
2023/03/07 09:56:56;;;;;;;;;16.33;14.33;;;;;11.46;89.48;99472.44;4974029;28;45344;-83
2023/03/07 09:59:40;;;;;;;;;16.00;16.00;;;;;11.57;89.36;99466.13;4959424;28;45492;-82
2023/03/07 10:02:39;;;;;;;;;22.33;19.00;;;;;11.68;88.12;99462.47;4961563;28;44827;-82
2023/03/07 10:05:10;;;;;;;;;22.33;20.00;;;;;11.71;86.18;99457.97;4973793;28;45430;-80
2023/03/07 10:07:37;;;;;;;;;15.33;14.67;;;;;11.61;86.57;99459.88;4973278;28;44884;-84
2023/03/07 10:10:16;;;;;;;;;19.00;18.33;;;;;11.71;87.56;99455.28;4943398;28;44729;-82
2023/03/07 10:13:15;;;;;;;;;17.33;16.67;;;;;11.91;87.24;99456.88;4922215;28;45459;-84
2023/03/07 10:15:51;;;;;;;;;17.67;16.33;;;;;11.98;84.52;99443.47;4955443;28;45551;-80
2023/03/07 10:18:54;;;;;;;;;22.33;17.67;;;;;12.14;84.76;99444.16;4941940;28;45579;-81
2023/03/07 10:21:47;;;;;;;;;17.33;15.67;;;;;12.10;84.79;99433.53;4935052;28;45489;-84
2023/03/07 10:24:32;;;;;;;;;21.00;17.00;;;;;12.17;84.19;99441.44;4935490;28;45520;-82
2023/03/07 10:28:10;;;;;;;;;25.67;18.33;;;;;12.20;83.88;99433.44;4934000;28;45346;-81
2023/03/07 10:30:58;;;;;;;;;16.33;13.67;;;;;12.19;83.57;99434.31;4900464;28;45794;-83
2023/03/07 10:33:24;;;;;;;;;18.33;17.33;;;;;12.09;83.23;99434.47;4920962;28;45336;-83
2023/03/07 10:35:57;;;;;;;;;19.00;17.33;;;;;12.03;83.35;99427.44;4919490;28;45366;-84
2023/03/07 10:39:29;;;;;;;;;20.33;16.67;;;;;12.08;82.62;99430.94;4938474;28;45336;-83
2023/03/07 10:41:59;;;;;;;;;18.67;16.67;;;;;11.98;81.58;99418.63;4860083;29;44792;-84
2023/03/07 10:45:09;;;;;;;;;;;;;;;;;;;;;
2023/03/07 10:47:35;;;;;;;;;16.67;13.67;;;;;12.08;82.55;99428.25;4873835;29;65199;-83
2023/03/07 10:50:29;;;;;;;;;11.67;11.33;;;;;12.12;81.33;99416.66;4881191;29;46014;-82
2023/03/07 10:52:59;;;;;;;;;16.67;14.00;;;;;12.27;81.67;99425.34;4877236;29;44808;-82
2023/03/07 10:55:32;;;;;;;;;16.00;12.33;;;;;12.42;80.15;99425.09;4874816;29;45474;-82
2023/03/07 10:58:48;;;;;;;;;18.00;16.00;;;;;12.53;80.03;99415.16;4872961;29;45526;-83
2023/03/07 11:01:18;;;;;;;;;22.33;14.67;;;;;12.56;79.62;99409.81;4854585;29;45653;-81
2023/03/07 11:04:23;;;;;;;;;17.33;13.00;;;;;12.69;76.30;99410.47;4876521;29;45608;-82
2023/03/07 11:06:59;;;;;;;;;13.33;12.67;;;;;12.74;77.19;99405.94;4841771;29;45466;-83
2023/03/07 11:09:28;;;;;;;;;18.67;16.00;;;;;12.79;76.28;99408.56;4841068;29;46038;-84
2023/03/07 11:12:19;;;;;;;;;13.67;13.33;;;;;12.88;73.99;99405.72;4846110;29;45587;-82
2023/03/07 11:14:59;;;;;;;;;17.67;15.00;;;;;12.86;74.89;99410.19;4840436;29;45497;-82
2023/03/07 11:17:44;;;;;;;;;14.00;12.33;;;;;12.84;73.26;99412.00;4856425;29;45410;-82
2023/03/07 11:20:46;;;;;;;;;17.67;14.00;;;;;12.97;74.07;99412.72;4865112;29;45584;-82
2023/03/07 11:23:36;;;;;;;;;16.33;12.00;;;;;12.93;73.09;99382.50;4876494;29;45187;-81
2023/03/07 11:26:22;;;;;;;;;15.33;11.67;;;;;13.16;70.74;99398.09;4877933;29;45421;-81
2023/03/07 11:29:13;;;;;;;;;17.67;15.00;;;;;13.31;71.15;99417.47;4878534;29;44780;-80
2023/03/07 11:32:26;;;;;;;;;11.67;11.67;;;;;13.37;70.81;99417.34;4877030;29;45534;-81
2023/03/07 11:35:40;;;;;;;;;;;;;;;;;;;;;
2023/03/07 11:38:38;;;;;;;;;16.67;12.00;;;;;13.57;68.17;99422.31;4782534;29;72015;-83
2023/03/07 11:41:33;;;;;;;;;15.67;14.33;;;;;13.65;67.13;99432.84;4797925;29;45866;-83
2023/03/07 11:47:30;;;;;;;;;13.33;10.33;;;;;13.88;65.82;99419.06;4820020;29;46023;-81
2023/03/07 11:50:16;;;;;;;;;15.00;11.00;;;;;14.04;63.58;99430.28;4808698;29;45321;-81
2023/03/07 11:53:08;;;;;;;;;11.67;11.00;;;;;14.08;63.49;99426.63;4817356;29;45556;-82
2023/03/07 11:55:51;;;;;;;;;13.67;11.00;;;;;14.12;64.39;99434.56;4818180;29;45443;-82
2023/03/07 11:58:44;;;;;;;;;18.33;13.00;;;;;14.23;64.38;99439.66;4824362;29;45174;-82